sensor_id;sensor_type;location;lat;lon;timestamp;P1;durP1;ratioP1;P2;durP2;ratioP2
28174;SDS011;59417;44.788;10.334;2023-11-22T00:00:10;70.60;;;46.78;;
28174;SDS011;59417;44.788;10.334;2023-11-22T00:02:37;68.55;;;46.90;;
28174;SDS011;59417;44.788;10.334;2023-11-22T00:05:06;74.95;;;50.30;;
28174;SDS011;59417;44.788;10.334;2023-11-22T00:07:32;68.38;;;49.08;;
28174;SDS011;59417;44.788;10.334;2023-11-22T00:09:58;73.25;;;50.45;;
28174;SDS011;59417;44.788;10.334;2023-11-22T00:12:29;73.35;;;49.78;;
28174;SDS011;59417;44.788;10.334;2023-11-22T00:15:16;77.50;;;50.80;;
28174;SDS011;59417;44.788;10.334;2023-11-22T00:17:47;76.78;;;51.63;;
28174;SDS011;59417;44.788;10.334;2023-11-22T00:20:13;76.20;;;52.20;;
28174;SDS011;59417;44.788;10.334;2023-11-22T00:22:39;75.57;;;54.65;;
28174;SDS011;59417;44.788;10.334;2023-11-22T00:25:05;79.63;;;55.70;;
28174;SDS011;59417;44.788;10.334;2023-11-22T00:27:32;81.43;;;54.55;;
28174;SDS011;59417;44.788;10.334;2023-11-22T00:29:58;82.15;;;54.95;;
28174;SDS011;59417;44.788;10.334;2023-11-22T00:32:30;82.93;;;53.67;;
28174;SDS011;59417;44.788;10.334;2023-11-22T00:34:58;82.75;;;54.47;;
28174;SDS011;59417;44.788;10.334;2023-11-22T00:37:29;87.57;;;55.10;;
28174;SDS011;59417;44.788;10.334;2023-11-22T00:39:55;74.80;;;52.75;;
28174;SDS011;59417;44.788;10.334;2023-11-22T00:42:20;85.95;;;54.50;;
28174;SDS011;59417;44.788;10.334;2023-11-22T00:44:46;78.75;;;55.47;;
28174;SDS011;59417;44.788;10.334;2023-11-22T00:47:12;83.55;;;53.72;;
28174;SDS011;59417;44.788;10.334;2023-11-22T00:49:38;81.15;;;55.72;;
28174;SDS011;59417;44.788;10.334;2023-11-22T00:52:04;82.38;;;55.35;;
28174;SDS011;59417;44.788;10.334;2023-11-22T00:54:29;89.60;;;55.30;;
28174;SDS011;59417;44.788;10.334;2023-11-22T00:56:55;79.45;;;53.70;;
28174;SDS011;59417;44.788;10.334;2023-11-22T00:59:21;80.13;;;54.28;;
28174;SDS011;59417;44.788;10.334;2023-11-22T01:01:47;80.28;;;54.20;;
28174;SDS011;59417;44.788;10.334;2023-11-22T01:04:12;76.40;;;54.13;;
28174;SDS011;59417;44.788;10.334;2023-11-22T01:06:39;78.72;;;52.47;;
28174;SDS011;59417;44.788;10.334;2023-11-22T01:09:06;76.55;;;55.08;;
28174;SDS011;59417;44.788;10.334;2023-11-22T01:11:34;78.20;;;54.42;;
28174;SDS011;59417;44.788;10.334;2023-11-22T01:14:03;86.75;;;55.03;;
28174;SDS011;59417;44.788;10.334;2023-11-22T01:16:28;87.38;;;56.50;;
28174;SDS011;59417;44.788;10.334;2023-11-22T01:18:54;76.50;;;54.75;;
28174;SDS011;59417;44.788;10.334;2023-11-22T01:21:19;90.03;;;56.40;;
28174;SDS011;59417;44.788;10.334;2023-11-22T01:23:45;84.30;;;54.47;;
28174;SDS011;59417;44.788;10.334;2023-11-22T01:26:11;85.75;;;56.60;;
28174;SDS011;59417;44.788;10.334;2023-11-22T01:28:37;87.13;;;55.88;;
28174;SDS011;59417;44.788;10.334;2023-11-22T01:31:05;80.57;;;56.03;;
28174;SDS011;59417;44.788;10.334;2023-11-22T01:33:31;89.28;;;56.00;;
28174;SDS011;59417;44.788;10.334;2023-11-22T01:36:01;93.07;;;59.90;;
28174;SDS011;59417;44.788;10.334;2023-11-22T01:38:27;84.68;;;54.25;;
28174;SDS011;59417;44.788;10.334;2023-11-22T01:40:53;78.85;;;54.75;;
28174;SDS011;59417;44.788;10.334;2023-11-22T01:43:19;89.82;;;56.28;;
28174;SDS011;59417;44.788;10.334;2023-11-22T01:45:47;84.95;;;56.22;;
28174;SDS011;59417;44.788;10.334;2023-11-22T01:48:12;86.53;;;57.42;;
28174;SDS011;59417;44.788;10.334;2023-11-22T01:50:38;88.30;;;56.67;;
28174;SDS011;59417;44.788;10.334;2023-11-22T01:53:07;80.95;;;58.15;;
28174;SDS011;59417;44.788;10.334;2023-11-22T01:55:36;90.68;;;58.60;;
28174;SDS011;59417;44.788;10.334;2023-11-22T01:58:05;87.00;;;53.13;;
28174;SDS011;59417;44.788;10.334;2023-11-22T02:00:32;78.55;;;54.65;;
28174;SDS011;59417;44.788;10.334;2023-11-22T02:03:03;77.40;;;52.78;;
28174;SDS011;59417;44.788;10.334;2023-11-22T02:05:29;75.38;;;54.30;;
28174;SDS011;59417;44.788;10.334;2023-11-22T02:07:54;85.88;;;52.97;;
28174;SDS011;59417;44.788;10.334;2023-11-22T02:10:20;79.45;;;50.25;;
28174;SDS011;59417;44.788;10.334;2023-11-22T02:12:49;77.68;;;51.90;;
28174;SDS011;59417;44.788;10.334;2023-11-22T02:15:15;80.05;;;51.65;;
28174;SDS011;59417;44.788;10.334;2023-11-22T02:17:40;77.20;;;51.10;;
28174;SDS011;59417;44.788;10.334;2023-11-22T02:20:06;77.68;;;52.17;;
28174;SDS011;59417;44.788;10.334;2023-11-22T02:22:42;73.10;;;48.20;;
28174;SDS011;59417;44.788;10.334;2023-11-22T02:25:08;75.28;;;50.42;;
28174;SDS011;59417;44.788;10.334;2023-11-22T02:27:35;72.50;;;50.00;;
28174;SDS011;59417;44.788;10.334;2023-11-22T02:30:02;70.18;;;47.88;;
28174;SDS011;59417;44.788;10.334;2023-11-22T02:32:31;77.10;;;48.50;;
28174;SDS011;59417;44.788;10.334;2023-11-22T02:34:58;72.13;;;48.47;;
28174;SDS011;59417;44.788;10.334;2023-11-22T02:37:23;71.93;;;49.22;;
28174;SDS011;59417;44.788;10.334;2023-11-22T02:40:35;76.57;;;50.30;;
28174;SDS011;59417;44.788;10.334;2023-11-22T02:42:48;70.35;;;47.13;;
28174;SDS011;59417;44.788;10.334;2023-11-22T02:45:18;74.47;;;49.97;;
28174;SDS011;59417;44.788;10.334;2023-11-22T02:47:45;70.68;;;46.92;;
28174;SDS011;59417;44.788;10.334;2023-11-22T02:50:15;73.65;;;46.75;;
28174;SDS011;59417;44.788;10.334;2023-11-22T02:52:42;63.85;;;44.58;;
28174;SDS011;59417;44.788;10.334;2023-11-22T02:55:08;70.38;;;46.40;;
28174;SDS011;59417;44.788;10.334;2023-11-22T02:57:37;62.53;;;43.42;;
28174;SDS011;59417;44.788;10.334;2023-11-22T03:00:04;69.25;;;46.08;;
28174;SDS011;59417;44.788;10.334;2023-11-22T03:02:31;67.18;;;44.92;;
28174;SDS011;59417;44.788;10.334;2023-11-22T03:04:57;65.72;;;44.75;;
28174;SDS011;59417;44.788;10.334;2023-11-22T03:07:23;66.32;;;45.60;;
28174;SDS011;59417;44.788;10.334;2023-11-22T03:09:50;63.75;;;45.70;;
28174;SDS011;59417;44.788;10.334;2023-11-22T03:12:16;58.42;;;41.05;;
28174;SDS011;59417;44.788;10.334;2023-11-22T03:14:43;60.95;;;41.55;;
28174;SDS011;59417;44.788;10.334;2023-11-22T03:17:09;59.50;;;41.72;;
28174;SDS011;59417;44.788;10.334;2023-11-22T03:19:38;62.20;;;41.38;;
28174;SDS011;59417;44.788;10.334;2023-11-22T03:22:05;61.50;;;43.03;;
28174;SDS011;59417;44.788;10.334;2023-11-22T03:24:33;62.15;;;41.47;;
28174;SDS011;59417;44.788;10.334;2023-11-22T03:29:45;54.13;;;37.63;;
28174;SDS011;59417;44.788;10.334;2023-11-22T03:32:11;63.88;;;41.17;;
28174;SDS011;59417;44.788;10.334;2023-11-22T03:34:38;59.45;;;40.35;;
28174;SDS011;59417;44.788;10.334;2023-11-22T03:37:04;55.83;;;40.17;;
28174;SDS011;59417;44.788;10.334;2023-11-22T03:39:30;60.25;;;39.90;;
28174;SDS011;59417;44.788;10.334;2023-11-22T03:41:55;53.85;;;39.45;;
28174;SDS011;59417;44.788;10.334;2023-11-22T03:44:22;56.45;;;38.17;;
28174;SDS011;59417;44.788;10.334;2023-11-22T03:46:48;56.72;;;38.88;;
28174;SDS011;59417;44.788;10.334;2023-11-22T03:49:14;53.67;;;37.85;;
28174;SDS011;59417;44.788;10.334;2023-11-22T03:51:40;52.78;;;37.78;;
28174;SDS011;59417;44.788;10.334;2023-11-22T03:54:07;54.47;;;38.72;;
28174;SDS011;59417;44.788;10.334;2023-11-22T03:56:35;50.47;;;37.20;;
28174;SDS011;59417;44.788;10.334;2023-11-22T03:59:00;50.22;;;35.85;;
28174;SDS011;59417;44.788;10.334;2023-11-22T04:01:26;50.67;;;36.33;;
28174;SDS011;59417;44.788;10.334;2023-11-22T04:03:52;55.72;;;36.85;;
28174;SDS011;59417;44.788;10.334;2023-11-22T04:06:19;51.45;;;35.65;;
28174;SDS011;59417;44.788;10.334;2023-11-22T04:08:45;48.00;;;35.10;;
28174;SDS011;59417;44.788;10.334;2023-11-22T04:11:12;53.25;;;37.20;;
28174;SDS011;59417;44.788;10.334;2023-11-22T04:13:38;46.28;;;35.42;;
28174;SDS011;59417;44.788;10.334;2023-11-22T04:16:04;52.83;;;37.28;;
28174;SDS011;59417;44.788;10.334;2023-11-22T04:18:34;51.28;;;36.25;;
28174;SDS011;59417;44.788;10.334;2023-11-22T04:21:01;48.55;;;35.58;;
28174;SDS011;59417;44.788;10.334;2023-11-22T04:23:28;53.97;;;37.08;;
28174;SDS011;59417;44.788;10.334;2023-11-22T04:25:54;43.42;;;34.08;;
28174;SDS011;59417;44.788;10.334;2023-11-22T04:28:20;47.33;;;34.92;;
28174;SDS011;59417;44.788;10.334;2023-11-22T04:30:46;48.88;;;36.00;;
28174;SDS011;59417;44.788;10.334;2023-11-22T04:33:12;50.30;;;36.38;;
28174;SDS011;59417;44.788;10.334;2023-11-22T04:35:37;50.38;;;35.22;;
28174;SDS011;59417;44.788;10.334;2023-11-22T04:38:04;47.53;;;33.78;;
28174;SDS011;59417;44.788;10.334;2023-11-22T04:40:29;42.45;;;32.97;;
28174;SDS011;59417;44.788;10.334;2023-11-22T04:42:56;52.78;;;35.03;;
28174;SDS011;59417;44.788;10.334;2023-11-22T04:45:21;43.88;;;33.22;;
28174;SDS011;59417;44.788;10.334;2023-11-22T04:47:47;48.90;;;33.08;;
28174;SDS011;59417;44.788;10.334;2023-11-22T04:50:13;47.28;;;34.20;;
28174;SDS011;59417;44.788;10.334;2023-11-22T04:52:39;47.17;;;32.58;;
28174;SDS011;59417;44.788;10.334;2023-11-22T04:55:04;45.95;;;32.13;;
28174;SDS011;59417;44.788;10.334;2023-11-22T04:57:30;50.42;;;33.72;;
28174;SDS011;59417;44.788;10.334;2023-11-22T04:59:56;49.50;;;35.35;;
28174;SDS011;59417;44.788;10.334;2023-11-22T05:02:22;46.42;;;33.25;;
28174;SDS011;59417;44.788;10.334;2023-11-22T05:04:48;46.47;;;31.92;;
28174;SDS011;59417;44.788;10.334;2023-11-22T05:07:15;45.25;;;32.08;;
28174;SDS011;59417;44.788;10.334;2023-11-22T05:09:41;41.13;;;31.00;;
28174;SDS011;59417;44.788;10.334;2023-11-22T05:12:09;45.70;;;32.33;;
28174;SDS011;59417;44.788;10.334;2023-11-22T05:14:35;44.38;;;30.52;;
28174;SDS011;59417;44.788;10.334;2023-11-22T05:17:01;44.03;;;31.80;;
28174;SDS011;59417;44.788;10.334;2023-11-22T05:19:27;42.47;;;32.00;;
28174;SDS011;59417;44.788;10.334;2023-11-22T05:21:53;44.15;;;30.83;;
28174;SDS011;59417;44.788;10.334;2023-11-22T05:24:18;45.22;;;30.30;;
28174;SDS011;59417;44.788;10.334;2023-11-22T05:26:44;41.03;;;30.67;;
28174;SDS011;59417;44.788;10.334;2023-11-22T05:29:10;43.47;;;30.77;;
28174;SDS011;59417;44.788;10.334;2023-11-22T05:31:36;48.05;;;30.90;;
28174;SDS011;59417;44.788;10.334;2023-11-22T05:34:02;42.55;;;29.23;;
28174;SDS011;59417;44.788;10.334;2023-11-22T05:36:29;42.00;;;29.63;;
28174;SDS011;59417;44.788;10.334;2023-11-22T05:38:55;46.95;;;30.83;;
28174;SDS011;59417;44.788;10.334;2023-11-22T05:41:24;41.60;;;29.42;;
28174;SDS011;59417;44.788;10.334;2023-11-22T05:43:53;44.42;;;29.70;;
28174;SDS011;59417;44.788;10.334;2023-11-22T05:46:19;42.33;;;29.35;;
28174;SDS011;59417;44.788;10.334;2023-11-22T05:48:50;42.20;;;29.95;;
28174;SDS011;59417;44.788;10.334;2023-11-22T05:51:16;39.70;;;28.50;;
28174;SDS011;59417;44.788;10.334;2023-11-22T05:53:42;40.60;;;29.88;;
28174;SDS011;59417;44.788;10.334;2023-11-22T05:56:08;38.83;;;27.98;;
28174;SDS011;59417;44.788;10.334;2023-11-22T05:58:38;40.50;;;28.77;;
28174;SDS011;59417;44.788;10.334;2023-11-22T06:01:09;37.20;;;27.63;;
28174;SDS011;59417;44.788;10.334;2023-11-22T06:03:37;35.95;;;28.27;;
28174;SDS011;59417;44.788;10.334;2023-11-22T06:06:06;39.92;;;27.85;;
28174;SDS011;59417;44.788;10.334;2023-11-22T06:08:34;38.33;;;27.92;;
28174;SDS011;59417;44.788;10.334;2023-11-22T06:11:04;35.15;;;27.13;;
28174;SDS011;59417;44.788;10.334;2023-11-22T06:13:32;39.17;;;27.10;;
28174;SDS011;59417;44.788;10.334;2023-11-22T06:15:58;39.13;;;27.38;;
28174;SDS011;59417;44.788;10.334;2023-11-22T06:18:30;33.50;;;25.80;;
28174;SDS011;59417;44.788;10.334;2023-11-22T06:21:01;35.15;;;25.75;;
28174;SDS011;59417;44.788;10.334;2023-11-22T06:23:30;37.67;;;27.70;;
28174;SDS011;59417;44.788;10.334;2023-11-22T06:25:56;37.75;;;27.48;;
28174;SDS011;59417;44.788;10.334;2023-11-22T06:28:22;38.75;;;26.85;;
28174;SDS011;59417;44.788;10.334;2023-11-22T06:30:47;35.08;;;26.90;;
28174;SDS011;59417;44.788;10.334;2023-11-22T06:33:13;38.00;;;26.00;;
28174;SDS011;59417;44.788;10.334;2023-11-22T06:35:39;46.85;;;27.90;;
28174;SDS011;59417;44.788;10.334;2023-11-22T06:38:07;37.72;;;26.85;;
28174;SDS011;59417;44.788;10.334;2023-11-22T06:40:33;36.22;;;27.15;;
28174;SDS011;59417;44.788;10.334;2023-11-22T06:42:59;36.13;;;25.17;;
28174;SDS011;59417;44.788;10.334;2023-11-22T06:45:25;37.65;;;26.02;;
28174;SDS011;59417;44.788;10.334;2023-11-22T06:47:51;36.58;;;27.17;;
28174;SDS011;59417;44.788;10.334;2023-11-22T06:50:17;34.25;;;25.75;;
28174;SDS011;59417;44.788;10.334;2023-11-22T06:52:46;36.28;;;26.17;;
28174;SDS011;59417;44.788;10.334;2023-11-22T06:55:14;36.53;;;25.92;;
28174;SDS011;59417;44.788;10.334;2023-11-22T06:57:40;40.10;;;27.27;;
28174;SDS011;59417;44.788;10.334;2023-11-22T07:00:06;34.83;;;25.60;;
28174;SDS011;59417;44.788;10.334;2023-11-22T07:02:34;36.92;;;26.60;;
28174;SDS011;59417;44.788;10.334;2023-11-22T07:05:01;36.28;;;26.00;;
28174;SDS011;59417;44.788;10.334;2023-11-22T07:07:28;37.97;;;28.15;;
28174;SDS011;59417;44.788;10.334;2023-11-22T07:09:55;43.88;;;26.77;;
28174;SDS011;59417;44.788;10.334;2023-11-22T07:12:26;39.33;;;28.03;;
28174;SDS011;59417;44.788;10.334;2023-11-22T07:14:52;42.55;;;29.77;;
28174;SDS011;59417;44.788;10.334;2023-11-22T07:17:18;40.65;;;28.27;;
28174;SDS011;59417;44.788;10.334;2023-11-22T07:19:44;44.67;;;28.83;;
28174;SDS011;59417;44.788;10.334;2023-11-22T07:22:16;43.70;;;28.65;;
28174;SDS011;59417;44.788;10.334;2023-11-22T07:24:46;39.50;;;28.33;;
28174;SDS011;59417;44.788;10.334;2023-11-22T07:27:19;50.55;;;29.85;;
28174;SDS011;59417;44.788;10.334;2023-11-22T07:29:53;54.33;;;30.45;;
28174;SDS011;59417;44.788;10.334;2023-11-22T07:32:19;47.42;;;29.05;;
28174;SDS011;59417;44.788;10.334;2023-11-22T07:34:55;39.72;;;29.52;;
28174;SDS011;59417;44.788;10.334;2023-11-22T07:37:21;42.05;;;29.77;;
28174;SDS011;59417;44.788;10.334;2023-11-22T07:39:46;45.85;;;30.00;;
28174;SDS011;59417;44.788;10.334;2023-11-22T07:42:12;42.47;;;29.13;;
28174;SDS011;59417;44.788;10.334;2023-11-22T07:44:38;43.47;;;29.55;;
28174;SDS011;59417;44.788;10.334;2023-11-22T07:47:03;48.08;;;28.42;;
28174;SDS011;59417;44.788;10.334;2023-11-22T07:49:34;40.38;;;29.92;;
28174;SDS011;59417;44.788;10.334;2023-11-22T07:52:03;39.80;;;28.52;;
28174;SDS011;59417;44.788;10.334;2023-11-22T07:54:30;39.83;;;29.30;;
28174;SDS011;59417;44.788;10.334;2023-11-22T07:56:55;42.53;;;29.88;;
28174;SDS011;59417;44.788;10.334;2023-11-22T07:59:21;41.25;;;29.63;;
28174;SDS011;59417;44.788;10.334;2023-11-22T08:01:46;43.92;;;29.15;;
28174;SDS011;59417;44.788;10.334;2023-11-22T08:04:15;38.22;;;29.27;;
28174;SDS011;59417;44.788;10.334;2023-11-22T08:06:44;44.87;;;29.83;;
28174;SDS011;59417;44.788;10.334;2023-11-22T08:09:11;38.83;;;28.48;;
28174;SDS011;59417;44.788;10.334;2023-11-22T08:11:36;41.00;;;28.77;;
28174;SDS011;59417;44.788;10.334;2023-11-22T08:14:02;37.72;;;27.65;;
28174;SDS011;59417;44.788;10.334;2023-11-22T08:16:28;40.33;;;27.17;;
28174;SDS011;59417;44.788;10.334;2023-11-22T08:18:53;40.05;;;28.10;;
28174;SDS011;59417;44.788;10.334;2023-11-22T08:21:19;40.75;;;28.85;;
28174;SDS011;59417;44.788;10.334;2023-11-22T08:23:48;42.75;;;29.77;;
28174;SDS011;59417;44.788;10.334;2023-11-22T08:26:13;41.85;;;29.17;;
28174;SDS011;59417;44.788;10.334;2023-11-22T08:28:39;35.95;;;28.05;;
28174;SDS011;59417;44.788;10.334;2023-11-22T08:31:05;44.17;;;30.05;;
28174;SDS011;59417;44.788;10.334;2023-11-22T08:33:34;42.13;;;30.38;;
28174;SDS011;59417;44.788;10.334;2023-11-22T08:36:00;41.53;;;28.92;;
28174;SDS011;59417;44.788;10.334;2023-11-22T08:38:27;43.83;;;30.77;;
28174;SDS011;59417;44.788;10.334;2023-11-22T08:40:53;42.90;;;30.27;;
28174;SDS011;59417;44.788;10.334;2023-11-22T08:43:20;44.38;;;30.33;;
28174;SDS011;59417;44.788;10.334;2023-11-22T08:45:50;42.03;;;30.05;;
28174;SDS011;59417;44.788;10.334;2023-11-22T08:48:16;43.15;;;29.65;;
28174;SDS011;59417;44.788;10.334;2023-11-22T08:50:42;39.45;;;30.17;;
28174;SDS011;59417;44.788;10.334;2023-11-22T08:53:13;39.33;;;29.27;;
28174;SDS011;59417;44.788;10.334;2023-11-22T08:55:39;42.65;;;31.10;;
28174;SDS011;59417;44.788;10.334;2023-11-22T08:58:04;47.40;;;31.05;;
28174;SDS011;59417;44.788;10.334;2023-11-22T09:00:30;47.55;;;30.95;;
28174;SDS011;59417;44.788;10.334;2023-11-22T09:03:00;39.83;;;30.17;;
28174;SDS011;59417;44.788;10.334;2023-11-22T09:05:26;42.47;;;29.88;;
28174;SDS011;59417;44.788;10.334;2023-11-22T09:07:52;39.10;;;28.73;;
28174;SDS011;59417;44.788;10.334;2023-11-22T09:10:20;42.60;;;28.95;;
28174;SDS011;59417;44.788;10.334;2023-11-22T09:12:47;43.78;;;29.38;;
28174;SDS011;59417;44.788;10.334;2023-11-22T09:15:12;41.10;;;28.42;;
28174;SDS011;59417;44.788;10.334;2023-11-22T09:17:42;41.83;;;29.13;;
28174;SDS011;59417;44.788;10.334;2023-11-22T09:20:14;39.50;;;28.00;;
28174;SDS011;59417;44.788;10.334;2023-11-22T09:22:44;40.90;;;28.25;;
28174;SDS011;59417;44.788;10.334;2023-11-22T09:25:15;37.08;;;27.70;;
28174;SDS011;59417;44.788;10.334;2023-11-22T09:27:44;40.28;;;28.40;;
28174;SDS011;59417;44.788;10.334;2023-11-22T09:30:20;34.80;;;27.33;;
28174;SDS011;59417;44.788;10.334;2023-11-22T09:33:13;38.85;;;27.60;;
28174;SDS011;59417;44.788;10.334;2023-11-22T09:35:40;39.20;;;28.02;;
28174;SDS011;59417;44.788;10.334;2023-11-22T09:38:08;38.53;;;26.85;;
28174;SDS011;59417;44.788;10.334;2023-11-22T09:40:41;39.72;;;28.77;;
28174;SDS011;59417;44.788;10.334;2023-11-22T09:43:09;34.35;;;27.00;;
28174;SDS011;59417;44.788;10.334;2023-11-22T09:45:35;36.65;;;26.92;;
28174;SDS011;59417;44.788;10.334;2023-11-22T09:48:03;41.90;;;27.42;;
28174;SDS011;59417;44.788;10.334;2023-11-22T09:50:40;41.97;;;27.20;;
28174;SDS011;59417;44.788;10.334;2023-11-22T09:53:40;38.58;;;27.85;;
28174;SDS011;59417;44.788;10.334;2023-11-22T09:56:10;36.25;;;26.10;;
28174;SDS011;59417;44.788;10.334;2023-11-22T09:58:39;35.47;;;27.43;;
28174;SDS011;59417;44.788;10.334;2023-11-22T10:01:13;36.40;;;26.35;;
28174;SDS011;59417;44.788;10.334;2023-11-22T10:03:39;35.65;;;24.52;;
28174;SDS011;59417;44.788;10.334;2023-11-22T10:06:05;35.53;;;26.42;;
28174;SDS011;59417;44.788;10.334;2023-11-22T10:08:31;35.33;;;25.90;;
28174;SDS011;59417;44.788;10.334;2023-11-22T10:10:58;37.45;;;24.65;;
28174;SDS011;59417;44.788;10.334;2023-11-22T10:13:24;32.35;;;24.90;;
28174;SDS011;59417;44.788;10.334;2023-11-22T10:15:51;33.10;;;22.98;;
28174;SDS011;59417;44.788;10.334;2023-11-22T10:18:18;32.13;;;23.30;;
28174;SDS011;59417;44.788;10.334;2023-11-22T10:20:46;28.38;;;21.20;;
28174;SDS011;59417;44.788;10.334;2023-11-22T10:23:14;25.23;;;20.33;;
28174;SDS011;59417;44.788;10.334;2023-11-22T10:25:44;26.40;;;20.80;;
28174;SDS011;59417;44.788;10.334;2023-11-22T10:28:15;24.92;;;18.80;;
28174;SDS011;59417;44.788;10.334;2023-11-22T10:30:48;23.88;;;19.15;;
28174;SDS011;59417;44.788;10.334;2023-11-22T10:33:15;26.38;;;18.58;;
28174;SDS011;59417;44.788;10.334;2023-11-22T10:35:42;31.10;;;19.52;;
28174;SDS011;59417;44.788;10.334;2023-11-22T10:38:14;24.67;;;17.77;;
28174;SDS011;59417;44.788;10.334;2023-11-22T10:40:49;21.30;;;15.75;;
28174;SDS011;59417;44.788;10.334;2023-11-22T10:43:19;23.77;;;15.85;;
28174;SDS011;59417;44.788;10.334;2023-11-22T10:45:51;25.90;;;17.30;;
28174;SDS011;59417;44.788;10.334;2023-11-22T10:48:18;18.92;;;12.93;;
28174;SDS011;59417;44.788;10.334;2023-11-22T10:50:47;24.73;;;20.35;;
28174;SDS011;59417;44.788;10.334;2023-11-22T10:53:21;29.88;;;22.67;;
28174;SDS011;59417;44.788;10.334;2023-11-22T10:55:57;30.48;;;23.15;;
28174;SDS011;59417;44.788;10.334;2023-11-22T10:58:47;32.58;;;22.98;;
28174;SDS011;59417;44.788;10.334;2023-11-22T11:01:17;32.95;;;23.00;;
28174;SDS011;59417;44.788;10.334;2023-11-22T11:04:01;29.90;;;22.80;;
28174;SDS011;59417;44.788;10.334;2023-11-22T11:06:32;27.58;;;20.63;;
28174;SDS011;59417;44.788;10.334;2023-11-22T11:09:00;25.73;;;19.08;;
28174;SDS011;59417;44.788;10.334;2023-11-22T11:11:31;32.10;;;20.92;;
28174;SDS011;59417;44.788;10.334;2023-11-22T11:13:58;25.88;;;20.33;;
28174;SDS011;59417;44.788;10.334;2023-11-22T11:16:26;25.27;;;20.42;;
28174;SDS011;59417;44.788;10.334;2023-11-22T11:18:55;23.10;;;18.00;;
28174;SDS011;59417;44.788;10.334;2023-11-22T11:21:21;24.45;;;18.85;;
28174;SDS011;59417;44.788;10.334;2023-11-22T11:23:47;23.63;;;19.67;;
28174;SDS011;59417;44.788;10.334;2023-11-22T11:26:18;26.17;;;17.38;;
28174;SDS011;59417;44.788;10.334;2023-11-22T11:31:13;24.10;;;17.05;;
28174;SDS011;59417;44.788;10.334;2023-11-22T11:36:23;17.73;;;9.90;;
28174;SDS011;59417;44.788;10.334;2023-11-22T11:38:52;18.17;;;11.05;;
28174;SDS011;59417;44.788;10.334;2023-11-22T11:41:23;18.10;;;10.48;;
28174;SDS011;59417;44.788;10.334;2023-11-22T11:43:53;16.83;;;9.90;;
28174;SDS011;59417;44.788;10.334;2023-11-22T11:46:23;14.23;;;9.48;;
28174;SDS011;59417;44.788;10.334;2023-11-22T11:48:51;13.13;;;8.93;;
28174;SDS011;59417;44.788;10.334;2023-11-22T11:51:23;13.63;;;9.40;;
28174;SDS011;59417;44.788;10.334;2023-11-22T11:53:57;14.55;;;10.15;;
28174;SDS011;59417;44.788;10.334;2023-11-22T11:56:31;16.48;;;9.60;;
28174;SDS011;59417;44.788;10.334;2023-11-22T11:59:02;15.73;;;9.43;;
28174;SDS011;59417;44.788;10.334;2023-11-22T12:01:29;13.43;;;10.05;;
28174;SDS011;59417;44.788;10.334;2023-11-22T12:03:57;14.85;;;10.25;;
28174;SDS011;59417;44.788;10.334;2023-11-22T12:06:23;15.10;;;10.35;;
28174;SDS011;59417;44.788;10.334;2023-11-22T12:08:52;17.60;;;11.00;;
28174;SDS011;59417;44.788;10.334;2023-11-22T12:11:18;16.75;;;12.05;;
28174;SDS011;59417;44.788;10.334;2023-11-22T12:13:44;14.63;;;11.00;;
28174;SDS011;59417;44.788;10.334;2023-11-22T12:16:16;16.58;;;11.60;;
28174;SDS011;59417;44.788;10.334;2023-11-22T12:18:48;15.10;;;10.13;;
28174;SDS011;59417;44.788;10.334;2023-11-22T12:21:18;17.85;;;10.65;;
28174;SDS011;59417;44.788;10.334;2023-11-22T12:23:44;16.92;;;10.95;;
28174;SDS011;59417;44.788;10.334;2023-11-22T12:26:13;16.02;;;11.63;;
28174;SDS011;59417;44.788;10.334;2023-11-22T12:28:40;14.85;;;11.23;;
28174;SDS011;59417;44.788;10.334;2023-11-22T12:31:07;13.85;;;10.90;;
28174;SDS011;59417;44.788;10.334;2023-11-22T12:33:35;15.02;;;10.10;;
28174;SDS011;59417;44.788;10.334;2023-11-22T12:36:05;15.98;;;10.68;;
28174;SDS011;59417;44.788;10.334;2023-11-22T12:38:32;14.10;;;9.52;;
28174;SDS011;59417;44.788;10.334;2023-11-22T12:40:59;13.80;;;9.90;;
28174;SDS011;59417;44.788;10.334;2023-11-22T12:43:29;18.83;;;9.30;;
28174;SDS011;59417;44.788;10.334;2023-11-22T12:45:59;12.43;;;10.00;;
28174;SDS011;59417;44.788;10.334;2023-11-22T12:48:26;14.57;;;9.93;;
28174;SDS011;59417;44.788;10.334;2023-11-22T12:50:55;17.67;;;10.27;;
28174;SDS011;59417;44.788;10.334;2023-11-22T12:53:21;12.98;;;9.50;;
28174;SDS011;59417;44.788;10.334;2023-11-22T12:55:49;14.02;;;10.65;;
28174;SDS011;59417;44.788;10.334;2023-11-22T12:58:19;14.50;;;8.93;;
28174;SDS011;59417;44.788;10.334;2023-11-22T13:00:54;17.67;;;10.23;;
28174;SDS011;59417;44.788;10.334;2023-11-22T13:03:28;12.93;;;9.50;;
28174;SDS011;59417;44.788;10.334;2023-11-22T13:05:57;11.27;;;9.63;;
28174;SDS011;59417;44.788;10.334;2023-11-22T13:08:23;13.68;;;10.35;;
28174;SDS011;59417;44.788;10.334;2023-11-22T13:10:54;12.82;;;8.80;;
28174;SDS011;59417;44.788;10.334;2023-11-22T13:13:23;14.93;;;8.93;;
28174;SDS011;59417;44.788;10.334;2023-11-22T13:15:59;12.75;;;10.18;;
28174;SDS011;59417;44.788;10.334;2023-11-22T13:18:25;15.55;;;9.50;;
28174;SDS011;59417;44.788;10.334;2023-11-22T13:20:51;11.32;;;8.52;;
28174;SDS011;59417;44.788;10.334;2023-11-22T13:23:19;11.85;;;8.07;;
28174;SDS011;59417;44.788;10.334;2023-11-22T13:25:45;12.32;;;7.82;;
28174;SDS011;59417;44.788;10.334;2023-11-22T13:28:11;10.20;;;9.00;;
28174;SDS011;59417;44.788;10.334;2023-11-22T13:30:36;14.38;;;9.25;;
28174;SDS011;59417;44.788;10.334;2023-11-22T13:33:02;16.05;;;9.55;;
28174;SDS011;59417;44.788;10.334;2023-11-22T13:35:28;11.50;;;9.18;;
28174;SDS011;59417;44.788;10.334;2023-11-22T13:37:58;11.05;;;9.27;;
28174;SDS011;59417;44.788;10.334;2023-11-22T13:40:24;12.98;;;9.48;;
28174;SDS011;59417;44.788;10.334;2023-11-22T13:42:55;14.63;;;9.68;;
28174;SDS011;59417;44.788;10.334;2023-11-22T13:45:21;13.48;;;8.55;;
28174;SDS011;59417;44.788;10.334;2023-11-22T13:47:48;13.15;;;8.82;;
28174;SDS011;59417;44.788;10.334;2023-11-22T13:50:16;14.05;;;9.05;;
28174;SDS011;59417;44.788;10.334;2023-11-22T13:52:50;13.23;;;8.65;;
28174;SDS011;59417;44.788;10.334;2023-11-22T13:55:17;13.80;;;9.18;;
28174;SDS011;59417;44.788;10.334;2023-11-22T13:57:48;11.57;;;9.02;;
28174;SDS011;59417;44.788;10.334;2023-11-22T14:00:18;16.75;;;10.20;;
28174;SDS011;59417;44.788;10.334;2023-11-22T14:02:47;13.35;;;9.48;;
28174;SDS011;59417;44.788;10.334;2023-11-22T14:07:41;16.48;;;10.00;;
28174;SDS011;59417;44.788;10.334;2023-11-22T14:10:07;12.68;;;9.20;;
28174;SDS011;59417;44.788;10.334;2023-11-22T14:12:37;14.85;;;9.73;;
28174;SDS011;59417;44.788;10.334;2023-11-22T14:15:03;14.65;;;9.90;;
28174;SDS011;59417;44.788;10.334;2023-11-22T14:17:32;12.57;;;9.55;;
28174;SDS011;59417;44.788;10.334;2023-11-22T14:20:01;11.80;;;8.90;;
28174;SDS011;59417;44.788;10.334;2023-11-22T14:22:28;14.43;;;10.77;;
28174;SDS011;59417;44.788;10.334;2023-11-22T14:24:53;14.40;;;9.55;;